Time;durP1;ratioP1;P1;durP2;ratioP2;P2;SDS_P1;SDS_P2;PMS_P1;PMS_P2;Temp;Humidity;BMP_temperature;BMP_pressure;BME280_temperature;BME280_humidity;BME280_pressure;Samples;Min_cycle;Max_cycle;Signal;HPM_P1;HPM_P2
2023/06/13 00:02:00;;;;;;;5.57;3.10;;;17.10;89.60;;;;;;5154436;27;20042;-76
2023/06/13 00:04:29;;;;;;;6.60;2.83;;;16.90;89.80;;;;;;5156615;27;20046;-77
2023/06/13 00:07:00;;;;;;;4.40;2.80;;;16.80;89.60;;;;;;5138072;27;20387;-77
2023/06/13 00:09:28;;;;;;;5.45;3.28;;;16.80;89.70;;;;;;5156723;27;20072;-77
2023/06/13 00:11:54;;;;;;;7.43;3.35;;;16.70;89.90;;;;;;5138311;27;20049;-77
2023/06/13 00:14:21;;;;;;;4.70;3.42;;;16.70;89.90;;;;;;5156295;27;20038;-76
2023/06/13 00:16:48;;;;;;;4.28;2.78;;;16.80;90.10;;;;;;5137627;27;20039;-77
2023/06/13 00:19:14;;;;;;;4.28;3.22;;;16.90;90.20;;;;;;5137491;27;20038;-77
2023/06/13 00:21:41;;;;;;;4.05;3.30;;;16.90;90.10;;;;;;5138340;27;20421;-77
2023/06/13 00:24:07;;;;;;;3.50;2.90;;;17.00;90.10;;;;;;5137832;27;20070;-77
2023/06/13 00:26:34;;;;;;;4.45;3.17;;;17.00;90.10;;;;;;5137992;27;20042;-76
2023/06/13 00:28:59;;;;;;;6.22;3.45;;;17.10;90.10;;;;;;5137930;27;20427;-76
2023/06/13 00:31:32;;;;;;;6.47;3.75;;;17.10;89.70;;;;;;5137100;27;20046;-77
2023/06/13 00:33:59;;;;;;;4.75;3.38;;;17.10;89.10;;;;;;5144050;27;20046;-76
2023/06/13 00:36:27;;;;;;;6.88;3.55;;;17.10;89.00;;;;;;5116392;27;20047;-76
2023/06/13 00:38:56;;;;;;;4.65;3.72;;;17.10;89.00;;;;;;5119750;27;20047;-77
2023/06/13 00:41:23;;;;;;;4.35;3.50;;;17.10;88.90;;;;;;5137994;27;20399;-76
2023/06/13 00:43:48;;;;;;;5.38;3.80;;;17.10;89.10;;;;;;5137396;27;20058;-77
2023/06/13 00:46:17;;;;;;;5.18;3.45;;;17.00;89.50;;;;;;5137298;27;20046;-76
2023/06/13 00:48:44;;;;;;;4.47;3.72;;;17.00;89.80;;;;;;5136768;27;20688;-76
2023/06/13 00:51:12;;;;;;;5.00;3.65;;;17.00;90.00;;;;;;5137570;27;20049;-77
2023/06/13 00:53:39;;;;;;;4.53;3.30;;;17.00;90.00;;;;;;5155798;27;20038;-77
2023/06/13 00:56:06;;;;;;;4.72;3.58;;;17.00;90.00;;;;;;5155664;27;20035;-77
2023/06/13 00:58:33;;;;;;;5.05;3.78;;;17.00;89.70;;;;;;5120088;27;20061;-76
2023/06/13 01:00:59;;;;;;;7.05;3.72;;;17.00;90.20;;;;;;5137038;27;20382;-76
2023/06/13 01:03:25;;;;;;;5.05;3.53;;;16.90;90.10;;;;;;5137273;27;20099;-77
2023/06/13 01:05:51;;;;;;;5.72;4.00;;;16.90;90.00;;;;;;5134079;27;20414;-76
2023/06/13 01:08:24;;;;;;;7.15;4.22;;;16.80;89.80;;;;;;5137364;27;20046;-76
2023/06/13 01:10:59;;;;;;;5.85;3.85;;;16.70;89.80;;;;;;5119403;27;20051;-76
2023/06/13 01:13:34;;;;;;;7.18;4.30;;;16.50;89.50;;;;;;5137045;27;20061;-76
2023/06/13 01:16:22;;;;;;;6.18;4.20;;;16.60;89.60;;;;;;5155233;27;20441;-77
2023/06/13 01:18:51;;;;;;;4.75;3.60;;;16.60;89.50;;;;;;5136831;27;20047;-77
2023/06/13 01:21:18;;;;;;;3.95;3.55;;;16.60;89.50;;;;;;5155492;27;20121;-76
2023/06/13 01:24:04;;;;;;;5.68;3.58;;;16.70;89.80;;;;;;5155178;27;20030;-75
2023/06/13 01:26:46;;;;;;;5.47;3.83;;;16.70;89.30;;;;;;5149214;27;20100;-77
2023/06/13 01:29:13;;;;;;;5.43;3.83;;;16.70;89.40;;;;;;5136792;27;20050;-77
2023/06/13 01:31:41;;;;;;;6.32;3.75;;;16.70;89.10;;;;;;5136519;27;20061;-77
2023/06/13 01:34:08;;;;;;;4.63;3.58;;;16.70;89.10;;;;;;5155052;27;20046;-77
2023/06/13 01:36:34;;;;;;;5.20;3.95;;;16.70;89.40;;;;;;5136532;27;20034;-77
2023/06/13 01:39:00;;;;;;;4.88;3.60;;;16.70;89.30;;;;;;5132237;27;20511;-77
2023/06/13 01:41:26;;;;;;;6.40;4.22;;;16.70;89.50;;;;;;5134192;27;20071;-76
2023/06/13 01:43:52;;;;;;;4.05;3.47;;;16.70;89.80;;;;;;5133770;27;20494;-76
2023/06/13 01:46:26;;;;;;;5.82;3.83;;;16.60;89.70;;;;;;5133783;27;20089;-77
2023/06/13 01:49:19;;;;;;;4.57;3.88;;;16.60;90.10;;;;;;5132709;27;20043;-77
2023/06/13 01:52:02;;;;;;;4.85;3.90;;;16.60;90.20;;;;;;5133420;27;20380;-77
2023/06/13 01:54:32;;;;;;;5.47;4.07;;;16.50;90.50;;;;;;5133148;27;20074;-76
2023/06/13 01:57:02;;;;;;;6.22;4.03;;;16.50;90.10;;;;;;5133726;27;20108;-77
2023/06/13 01:59:29;;;;;;;5.47;3.90;;;16.50;90.10;;;;;;5132980;27;20055;-77
2023/06/13 02:01:56;;;;;;;4.68;3.63;;;16.40;90.10;;;;;;5132694;27;20148;-77
2023/06/13 02:04:22;;;;;;;4.90;3.90;;;16.40;90.20;;;;;;5115902;28;20116;-77
2023/06/13 02:06:48;;;;;;;4.78;3.83;;;16.40;90.20;;;;;;5133548;27;20472;-77
2023/06/13 02:09:14;;;;;;;6.53;3.78;;;16.40;90.30;;;;;;5132626;27;20127;-77
2023/06/13 02:11:39;;;;;;;5.32;3.78;;;16.40;90.30;;;;;;5132430;27;20134;-76
2023/06/13 02:14:06;;;;;;;6.35;3.63;;;16.30;90.20;;;;;;5132732;27;20095;-77
2023/06/13 02:16:32;;;;;;;5.28;3.72;;;16.30;90.20;;;;;;5114719;28;20133;-77
2023/06/13 02:19:01;;;;;;;6.82;4.07;;;16.20;90.20;;;;;;5132151;28;20386;-77
2023/06/13 02:21:29;;;;;;;6.15;4.10;;;16.20;90.20;;;;;;5132900;28;20051;-78
2023/06/13 02:23:55;;;;;;;4.72;3.50;;;16.20;90.20;;;;;;5132471;28;20050;-76
2023/06/13 02:26:23;;;;;;;4.65;3.70;;;16.20;90.30;;;;;;5132469;28;20039;-77
2023/06/13 02:28:49;;;;;;;4.80;3.70;;;16.10;90.30;;;;;;5132631;28;20049;-77
2023/06/13 02:31:15;;;;;;;7.68;3.72;;;16.10;90.40;;;;;;5132639;28;20046;-77
2023/06/13 02:33:43;;;;;;;5.93;4.05;;;16.10;90.40;;;;;;5132403;28;20047;-77
2023/06/13 02:36:09;;;;;;;6.55;3.58;;;16.10;90.40;;;;;;5132631;28;20070;-77
2023/06/13 02:38:36;;;;;;;5.47;4.07;;;16.10;90.50;;;;;;5132188;28;20713;-77
2023/06/13 02:41:03;;;;;;;7.68;3.95;;;16.00;90.40;;;;;;5132083;28;20440;-77
2023/06/13 02:43:29;;;;;;;6.53;3.95;;;16.00;90.50;;;;;;5132071;28;20043;-77
2023/06/13 02:45:54;;;;;;;4.97;4.03;;;16.00;90.50;;;;;;5132357;28;20185;-77
2023/06/13 02:48:22;;;;;;;4.93;3.55;;;16.00;90.60;;;;;;5133563;27;20055;-76
2023/06/13 02:50:48;;;;;;;6.05;3.88;;;16.00;90.60;;;;;;5115041;28;20387;-77
2023/06/13 02:53:14;;;;;;;4.97;3.70;;;16.00;90.70;;;;;;5133367;27;20038;-76
2023/06/13 02:55:44;;;;;;;5.30;3.67;;;15.90;90.70;;;;;;5129757;28;20054;-77
2023/06/13 02:58:10;;;;;;;6.28;4.03;;;15.90;90.80;;;;;;5133725;27;20059;-77
2023/06/13 03:00:36;;;;;;;7.50;3.88;;;15.80;90.80;;;;;;5136026;27;20390;-77
2023/06/13 03:03:02;;;;;;;6.40;3.72;;;15.80;90.90;;;;;;5137371;27;20079;-76
2023/06/13 03:05:27;;;;;;;5.00;3.53;;;15.80;91.00;;;;;;5119317;27;20047;-77
2023/06/13 03:07:58;;;;;;;5.82;4.07;;;15.70;91.10;;;;;;5136637;27;20166;-76
2023/06/13 03:10:25;;;;;;;5.90;3.40;;;15.70;91.30;;;;;;5135382;27;20058;-77
2023/06/13 03:12:51;;;;;;;6.05;3.67;;;15.60;91.50;;;;;;5135377;27;20484;-77
2023/06/13 03:15:17;;;;;;;5.68;3.35;;;15.60;91.60;;;;;;5136019;27;20159;-77
2023/06/13 03:17:45;;;;;;;5.88;3.78;;;15.50;91.70;;;;;;5136150;27;20060;-77
2023/06/13 03:20:11;;;;;;;4.55;3.50;;;15.50;91.80;;;;;;5136264;27;20484;-77
2023/06/13 03:22:37;;;;;;;5.65;3.58;;;15.50;91.90;;;;;;5136369;27;20047;-77
2023/06/13 03:25:03;;;;;;;5.22;3.80;;;15.40;92.00;;;;;;5116949;27;20039;-77
2023/06/13 03:27:29;;;;;;;4.70;3.33;;;15.40;92.10;;;;;;5134063;27;20045;-76
2023/06/13 03:29:54;;;;;;;4.40;3.42;;;15.30;92.30;;;;;;5116904;27;20126;-77
2023/06/13 03:32:20;;;;;;;5.03;3.17;;;15.30;92.40;;;;;;5134124;27;20062;-77
2023/06/13 03:34:47;;;;;;;5.75;3.90;;;15.20;92.50;;;;;;5135705;27;20039;-77
2023/06/13 03:37:14;;;;;;;5.55;3.60;;;15.20;92.90;;;;;;5133632;27;20051;-77
2023/06/13 03:39:39;;;;;;;5.15;3.70;;;15.20;92.80;;;;;;5134785;27;20054;-77
2023/06/13 03:42:06;;;;;;;5.70;3.75;;;15.20;92.90;;;;;;5118436;27;20521;-77
2023/06/13 03:44:31;;;;;;;3.83;3.25;;;15.20;93.00;;;;;;5136344;27;20054;-77
2023/06/13 03:46:57;;;;;;;4.53;3.28;;;15.20;93.10;;;;;;5135263;27;20043;-77
2023/06/13 03:49:23;;;;;;;5.90;3.80;;;15.20;93.20;;;;;;5135869;27;20114;-78
2023/06/13 03:51:50;;;;;;;4.75;3.50;;;15.20;93.40;;;;;;5135605;27;20071;-77
2023/06/13 03:54:16;;;;;;;6.30;3.60;;;15.10;93.60;;;;;;5135361;27;20039;-77
2023/06/13 03:56:42;;;;;;;4.53;3.55;;;15.10;93.90;;;;;;5114441;28;20047;-77
2023/06/13 03:59:07;;;;;;;4.60;3.40;;;15.00;94.10;;;;;;5127874;27;20043;-77
2023/06/13 04:01:34;;;;;;;4.18;3.38;;;14.90;94.40;;;;;;5114259;28;20050;-76
2023/06/13 04:03:59;;;;;;;6.45;3.65;;;14.90;94.80;;;;;;5133604;27;20047;-76
2023/06/13 04:06:28;;;;;;;7.25;4.07;;;14.90;95.20;;;;;;5134923;27;20130;-77
2023/06/13 04:08:55;;;;;;;5.05;3.70;;;14.90;95.50;;;;;;5134878;27;20051;-77
2023/06/13 04:11:21;;;;;;;5.53;3.95;;;14.90;96.00;;;;;;5135558;27;20051;-77
2023/06/13 04:13:46;;;;;;;6.05;3.65;;;14.90;96.40;;;;;;5135709;27;20096;-77
2023/06/13 04:16:12;;;;;;;9.38;3.80;;;14.90;96.80;;;;;;5117597;27;20479;-77
2023/06/13 04:18:39;;;;;;;6.43;3.72;;;14.90;97.20;;;;;;5134476;27;20050;-75
2023/06/13 04:21:09;;;;;;;5.38;3.80;;;15.00;97.60;;;;;;5135927;27;20122;-76
2023/06/13 04:23:35;;;;;;;4.53;3.97;;;15.00;98.20;;;;;;5134556;27;20055;-77
2023/06/13 04:26:02;;;;;;;6.90;3.92;;;15.10;98.50;;;;;;5134045;27;20123;-78
2023/06/13 04:28:29;;;;;;;5.28;3.70;;;15.20;98.80;;;;;;5113701;28;20036;-77
2023/06/13 04:30:56;;;;;;;4.47;3.50;;;15.20;99.00;;;;;;5120162;27;20050;-77
2023/06/13 04:33:24;;;;;;;5.18;3.53;;;15.30;98.90;;;;;;5135346;27;20488;-77
2023/06/13 04:35:50;;;;;;;5.63;3.60;;;15.30;99.10;;;;;;5135441;27;20456;-77
2023/06/13 04:38:21;;;;;;;5.80;3.45;;;15.40;99.40;;;;;;5135517;27;20089;-77
2023/06/13 04:40:48;;;;;;;4.32;3.42;;;15.50;99.50;;;;;;5137863;27;20059;-76
2023/06/13 04:43:17;;;;;;;6.57;3.63;;;15.60;99.50;;;;;;5158197;27;20491;-77
2023/06/13 04:45:43;;;;;;;5.60;3.33;;;15.70;99.60;;;;;;5122956;27;20038;-76
2023/06/13 04:48:10;;;;;;;3.92;3.40;;;15.80;99.90;;;;;;5157285;27;20053;-76
2023/06/13 04:50:40;;;;;;;5.68;3.33;;;15.80;99.90;;;;;;5120564;27;20046;-77
2023/06/13 04:53:11;;;;;;;7.22;2.95;;;15.90;99.90;;;;;;5127693;27;20074;-77
2023/06/13 04:55:40;;;;;;;5.93;3.50;;;16.00;99.90;;;;;;5137548;27;20405;-77
2023/06/13 04:58:06;;;;;;;7.43;3.60;;;16.10;99.90;;;;;;5137174;27;20057;-77
2023/06/13 05:00:33;;;;;;;5.80;3.70;;;16.30;99.90;;;;;;5137213;27;20042;-76
2023/06/13 05:03:02;;;;;;;5.40;3.60;;;16.40;99.90;;;;;;5116586;27;20047;-78
2023/06/13 05:05:28;;;;;;;5.00;3.60;;;16.50;99.90;;;;;;5132485;27;20051;-77
2023/06/13 05:07:59;;;;;;;4.78;3.00;;;16.50;99.90;;;;;;5137198;27;20039;-77
2023/06/13 05:10:28;;;;;;;7.13;3.17;;;16.60;99.90;;;;;;5136970;27;20049;-77
2023/06/13 05:12:55;;;;;;;5.75;3.13;;;16.70;99.90;;;;;;5137127;27;20034;-76
2023/06/13 05:15:21;;;;;;;5.07;3.15;;;16.80;99.90;;;;;;5155282;27;20042;-78
2023/06/13 05:17:48;;;;;;;5.97;3.03;;;16.90;99.90;;;;;;5137191;27;20125;-77
2023/06/13 05:20:14;;;;;;;5.22;3.42;;;17.00;99.90;;;;;;5115654;27;20387;-78
2023/06/13 05:22:41;;;;;;;4.25;3.20;;;17.10;99.90;;;;;;5120303;27;20089;-78
2023/06/13 05:25:11;;;;;;;4.13;2.95;;;17.20;99.90;;;;;;5136171;27;20558;-77
2023/06/13 05:27:37;;;;;;;5.00;3.25;;;17.30;99.90;;;;;;5155146;27;20043;-78
2023/06/13 05:30:08;;;;;;;3.67;2.92;;;17.40;99.90;;;;;;5136955;27;20050;-78
2023/06/13 05:32:34;;;;;;;5.32;3.00;;;17.40;99.90;;;;;;5136638;27;20509;-77
2023/06/13 05:35:00;;;;;;;4.68;3.13;;;17.60;99.90;;;;;;5136637;27;20042;-77
2023/06/13 05:37:26;;;;;;;7.13;3.03;;;17.60;99.90;;;;;;5137035;27;20399;-78
2023/06/13 05:39:51;;;;;;;5.38;3.40;;;17.80;99.90;;;;;;5115532;27;20062;-75
2023/06/13 05:42:17;;;;;;;5.10;2.90;;;17.80;99.90;;;;;;5136400;27;20173;-78
2023/06/13 05:44:43;;;;;;;4.10;2.90;;;18.00;99.90;;;;;;5115823;27;20043;-79
2023/06/13 05:47:08;;;;;;;3.25;2.30;;;18.10;99.90;;;;;;5106898;27;20125;-79
2023/06/13 05:49:34;;;;;;;4.65;2.42;;;18.20;99.30;;;;;;5135844;27;20518;-77
2023/06/13 05:52:00;;;;;;;3.20;2.35;;;18.40;98.60;;;;;;5136345;27;20103;-78
2023/06/13 05:54:26;;;;;;;3.65;2.53;;;18.40;97.60;;;;;;5119330;27;20059;-78
2023/06/13 05:56:51;;;;;;;3.85;2.50;;;18.50;97.10;;;;;;5135521;27;20041;-79
2023/06/13 05:59:17;;;;;;;3.00;2.38;;;18.70;96.90;;;;;;5115031;27;20112;-78
2023/06/13 06:01:43;;;;;;;4.32;2.50;;;18.80;96.60;;;;;;5129715;27;20108;-78
2023/06/13 06:04:10;;;;;;;5.00;2.78;;;18.90;96.30;;;;;;5136101;27;20070;-78
2023/06/13 06:06:36;;;;;;;3.47;2.50;;;19.00;96.10;;;;;;5136431;27;20054;-79
2023/06/13 06:09:02;;;;;;;3.47;2.70;;;19.10;95.90;;;;;;5136042;27;20043;-63
2023/06/13 06:11:28;;;;;;;3.80;2.70;;;19.20;95.70;;;;;;5132117;27;20058;-64
2023/06/13 06:13:54;;;;;;;3.50;2.50;;;19.30;95.60;;;;;;5150780;27;20038;-63
2023/06/13 06:16:20;;;;;;;3.80;2.75;;;19.30;95.30;;;;;;5154539;27;20122;-63
2023/06/13 06:18:46;;;;;;;4.75;2.75;;;19.40;95.10;;;;;;5154373;27;20081;-63
2023/06/13 06:21:11;;;;;;;3.78;2.75;;;19.50;94.90;;;;;;5153853;27;20463;-63
2023/06/13 06:23:42;;;;;;;6.65;2.90;;;19.50;94.90;;;;;;5154461;27;20039;-63
2023/06/13 06:26:11;;;;;;;4.55;2.70;;;19.60;94.60;;;;;;5154223;27;20035;-63
2023/06/13 06:28:38;;;;;;;4.40;2.67;;;19.70;94.40;;;;;;5124444;27;20061;-63
2023/06/13 06:31:05;;;;;;;3.60;2.80;;;19.70;94.20;;;;;;5135764;27;20500;-63
2023/06/13 06:33:31;;;;;;;5.30;2.92;;;19.80;94.00;;;;;;5155468;27;20054;-63
2023/06/13 06:35:57;;;;;;;3.22;2.47;;;19.80;93.90;;;;;;5140203;27;20058;-63
2023/06/13 06:38:22;;;;;;;4.65;2.95;;;19.90;93.90;;;;;;5119383;27;20043;-63
2023/06/13 06:40:48;;;;;;;4.50;2.90;;;19.90;93.80;;;;;;5153523;27;20173;-63
2023/06/13 06:43:14;;;;;;;4.13;2.90;;;20.00;93.60;;;;;;5157808;27;20055;-63
2023/06/13 06:45:40;;;;;;;3.60;2.58;;;20.10;93.60;;;;;;5158135;27;20555;-63
2023/06/13 06:48:05;;;;;;;3.58;2.80;;;20.20;93.60;;;;;;5157798;27;20424;-63
2023/06/13 06:50:31;;;;;;;5.40;3.05;;;20.30;93.70;;;;;;5157896;27;20034;-64
2023/06/13 06:52:57;;;;;;;3.97;2.67;;;20.40;93.50;;;;;;5158649;27;20042;-63
2023/06/13 06:55:22;;;;;;;3.78;2.63;;;20.40;93.50;;;;;;5139653;27;20038;-62
2023/06/13 06:57:48;;;;;;;4.75;2.70;;;20.50;93.40;;;;;;5157819;27;20042;-63
2023/06/13 07:00:14;;;;;;;3.63;2.97;;;20.60;93.30;;;;;;5139333;27;20046;-63
2023/06/13 07:02:41;;;;;;;4.63;2.97;;;20.60;93.10;;;;;;5157502;27;20036;-63
2023/06/13 07:05:08;;;;;;;5.05;3.08;;;20.70;93.00;;;;;;5157925;27;20391;-64
2023/06/13 07:07:35;;;;;;;5.05;3.10;;;20.70;92.90;;;;;;5150952;27;20038;-64
2023/06/13 07:10:01;;;;;;;4.05;2.92;;;20.70;92.90;;;;;;5125623;27;20035;-65
2023/06/13 07:12:26;;;;;;;5.32;3.20;;;20.90;92.90;;;;;;5132355;27;20038;-63
2023/06/13 07:14:52;;;;;;;5.45;3.20;;;20.90;92.80;;;;;;5151269;27;20045;-63
2023/06/13 07:17:18;;;;;;;5.05;2.90;;;21.00;92.80;;;;;;5131709;27;20499;-64
2023/06/13 07:19:43;;;;;;;4.22;2.63;;;21.10;92.50;;;;;;5125554;27;20070;-64
2023/06/13 07:22:09;;;;;;;3.78;3.10;;;21.20;92.50;;;;;;5156740;27;20099;-62
2023/06/13 07:24:35;;;;;;;3.70;2.25;;;21.20;92.40;;;;;;5152526;27;20035;-62
2023/06/13 07:27:00;;;;;;;4.82;2.70;;;21.30;92.20;;;;;;5136781;27;20042;-62
2023/06/13 07:29:26;;;;;;;4.97;2.90;;;21.40;92.00;;;;;;5156515;27;20053;-62
2023/06/13 07:31:52;;;;;;;3.08;2.40;;;21.50;92.00;;;;;;5154106;27;20039;-63
2023/06/13 07:34:17;;;;;;;3.97;2.60;;;21.60;92.00;;;;;;5157308;27;20398;-62
2023/06/13 07:36:43;;;;;;;4.03;2.40;;;21.70;92.00;;;;;;5133664;27;20031;-62
2023/06/13 07:39:12;;;;;;;3.80;2.70;;;21.90;92.00;;;;;;5152645;27;20058;-63
2023/06/13 07:41:38;;;;;;;4.15;2.70;;;22.00;92.10;;;;;;5152265;27;20122;-62
2023/06/13 07:44:06;;;;;;;3.28;2.55;;;22.20;92.00;;;;;;5150800;27;20121;-62
2023/06/13 07:46:32;;;;;;;4.40;2.40;;;22.40;91.90;;;;;;5133622;27;20035;-62
2023/06/13 07:48:58;;;;;;;3.70;2.42;;;22.50;91.80;;;;;;5151455;27;20531;-62
2023/06/13 07:51:24;;;;;;;4.25;2.60;;;22.60;91.50;;;;;;5154813;27;20054;-62
2023/06/13 07:53:50;;;;;;;3.35;2.35;;;22.60;91.30;;;;;;5155056;27;20054;-63
2023/06/13 07:56:16;;;;;;;4.88;2.40;;;22.70;91.20;;;;;;5155063;27;20047;-63
2023/06/13 07:58:42;;;;;;;5.57;2.50;;;22.90;91.10;;;;;;5133880;27;20368;-63
2023/06/13 08:01:08;;;;;;;3.95;2.53;;;22.90;91.10;;;;;;5153472;27;20042;-63
2023/06/13 08:03:34;;;;;;;3.75;2.40;;;23.10;91.20;;;;;;5145582;27;20045;-64
2023/06/13 08:06:00;;;;;;;3.60;2.58;;;23.20;91.00;;;;;;5154870;27;20079;-63
2023/06/13 08:08:26;;;;;;;3.05;2.17;;;23.20;90.80;;;;;;5154693;27;20055;-63
2023/06/13 08:10:52;;;;;;;4.95;2.50;;;23.30;90.90;;;;;;5155250;27;20129;-63
2023/06/13 08:13:18;;;;;;;4.30;2.38;;;23.40;91.00;;;;;;5154381;27;20039;-63
2023/06/13 08:15:44;;;;;;;2.85;1.98;;;23.60;91.00;;;;;;5155070;27;20117;-62
2023/06/13 08:18:11;;;;;;;4.05;2.47;;;23.70;90.70;;;;;;5142733;27;20135;-63
2023/06/13 08:20:37;;;;;;;3.28;2.20;;;23.90;90.80;;;;;;5132517;28;20486;-63
2023/06/13 08:23:03;;;;;;;3.83;2.33;;;24.10;90.70;;;;;;5144778;27;20175;-63
2023/06/13 08:25:29;;;;;;;5.07;2.55;;;24.10;90.30;;;;;;5154687;27;20510;-63
2023/06/13 08:27:55;;;;;;;3.45;2.33;;;24.30;90.50;;;;;;5145787;27;20043;-63
2023/06/13 08:30:21;;;;;;;3.20;2.03;;;24.50;90.50;;;;;;5154971;27;20077;-63
2023/06/13 08:32:48;;;;;;;3.38;2.33;;;24.60;90.40;;;;;;5152218;27;20130;-63
2023/06/13 08:35:13;;;;;;;2.90;2.20;;;24.70;90.50;;;;;;5154559;27;20039;-63
2023/06/13 08:37:39;;;;;;;3.70;2.13;;;24.80;90.50;;;;;;5135310;27;20061;-64
2023/06/13 08:40:09;;;;;;;4.00;2.40;;;24.90;90.30;;;;;;5114242;27;1095398;-63
2023/06/13 08:42:37;;;;;;;2.63;2.00;;;24.90;90.00;;;;;;5150272;27;20045;-63
2023/06/13 08:45:03;;;;;;;4.78;2.15;;;24.90;90.10;;;;;;5152092;27;20107;-64
2023/06/13 08:47:29;;;;;;;3.72;1.92;;;25.00;90.10;;;;;;5147713;27;20055;-63
2023/06/13 08:49:54;;;;;;;4.95;2.30;;;25.20;90.10;;;;;;5154693;27;20046;-63
2023/06/13 08:52:20;;;;;;;3.63;2.17;;;25.40;89.70;;;;;;5154945;27;20089;-63
2023/06/13 08:54:51;;;;;;;6.10;2.30;;;25.50;89.10;;;;;;5155732;27;20114;-62
2023/06/13 08:57:18;;;;;;;4.15;2.33;;;25.60;87.50;;;;;;5149063;27;20077;-63
2023/06/13 08:59:47;;;;;;;4.07;2.00;;;25.60;87.60;;;;;;5152277;27;20491;-64
2023/06/13 09:02:20;;;;;;;3.40;2.65;;;25.70;87.70;;;;;;5151118;27;20050;-63
2023/06/13 09:04:47;;;;;;;3.78;2.15;;;25.90;87.40;;;;;;5150323;27;20043;-64
2023/06/13 09:07:13;;;;;;;3.75;2.20;;;26.00;88.20;;;;;;5151117;27;20045;-64
2023/06/13 09:09:41;;;;;;;3.03;2.20;;;26.20;88.10;;;;;;5146568;27;20047;-63
2023/06/13 09:12:08;;;;;;;4.82;1.95;;;26.40;87.20;;;;;;5154552;27;20159;-63
2023/06/13 09:14:34;;;;;;;3.00;2.20;;;26.40;86.40;;;;;;5155168;27;20050;-63
2023/06/13 09:17:00;;;;;;;3.03;1.92;;;26.50;85.70;;;;;;5154268;27;20043;-64
2023/06/13 09:19:26;;;;;;;3.53;2.25;;;26.50;85.20;;;;;;5133018;27;20051;-63
2023/06/13 09:21:51;;;;;;;4.07;2.22;;;26.70;85.30;;;;;;5134584;27;20043;-62
2023/06/13 09:24:17;;;;;;;3.40;2.15;;;26.90;85.20;;;;;;5134173;27;20107;-62
2023/06/13 09:26:44;;;;;;;3.78;2.10;;;27.00;84.40;;;;;;5132444;27;20547;-63
2023/06/13 09:29:10;;;;;;;3.20;2.03;;;27.10;83.90;;;;;;5154231;27;20089;-63
2023/06/13 09:31:38;;;;;;;4.22;2.22;;;27.10;83.70;;;;;;5153370;27;20103;-62
2023/06/13 09:34:08;;;;;;;6.43;2.22;;;27.20;83.90;;;;;;5134186;27;20062;-63
2023/06/13 09:36:37;;;;;;;4.03;2.40;;;27.40;83.40;;;;;;5134287;27;20077;-62
2023/06/13 09:39:06;;;;;;;3.55;2.00;;;27.50;83.00;;;;;;5150292;27;20501;-63
2023/06/13 09:41:33;;;;;;;2.60;2.05;;;27.50;81.80;;;;;;5154776;27;20059;-63
2023/06/13 09:44:05;;;;;;;4.10;2.15;;;27.50;81.90;;;;;;5154802;27;20055;-63
2023/06/13 09:46:37;;;;;;;3.30;2.13;;;27.40;81.40;;;;;;5152890;27;20034;-63
2023/06/13 09:49:03;;;;;;;3.10;2.28;;;27.40;81.30;;;;;;5124973;27;20040;-63
2023/06/13 09:51:29;;;;;;;3.67;1.90;;;27.50;81.00;;;;;;5124271;27;20046;-62
2023/06/13 09:53:55;;;;;;;4.15;2.40;;;27.60;80.70;;;;;;5154527;27;20041;-63
2023/06/13 09:56:23;;;;;;;3.00;2.08;;;27.60;80.30;;;;;;5140265;27;20039;-63
2023/06/13 09:58:50;;;;;;;3.05;1.95;;;27.70;80.20;;;;;;5133798;27;20791;-62
2023/06/13 10:01:18;;;;;;;3.95;2.33;;;27.90;80.00;;;;;;5131505;27;20121;-63
2023/06/13 10:03:44;;;;;;;2.70;2.00;;;28.00;79.50;;;;;;5144686;27;20391;-62
2023/06/13 10:06:11;;;;;;;4.32;2.30;;;28.10;78.90;;;;;;5136517;27;20491;-62
2023/06/13 10:08:37;;;;;;;3.90;2.35;;;28.20;79.00;;;;;;5154005;27;20126;-62
2023/06/13 10:11:18;;;;;;;3.17;2.13;;;28.30;79.30;;;;;;5154046;27;20039;-63
2023/06/13 10:14:19;;;;;;;3.75;2.20;;;28.40;79.20;;;;;;5154392;27;20047;-63
2023/06/13 10:16:49;;;;;;;2.97;2.20;;;28.60;79.20;;;;;;5149322;27;20133;-62
2023/06/13 10:19:19;;;;;;;3.13;2.33;;;28.60;78.20;;;;;;5134792;27;20043;-63
2023/06/13 10:21:46;;;;;;;4.72;2.13;;;28.70;78.90;;;;;;5142279;27;20113;-62
2023/06/13 10:24:14;;;;;;;4.60;1.90;;;28.90;78.80;;;;;;5133453;27;20510;-62
2023/06/13 10:26:41;;;;;;;3.35;2.28;;;29.00;79.00;;;;;;5133440;28;20050;-62
2023/06/13 10:29:13;;;;;;;4.10;2.20;;;29.10;77.80;;;;;;5133472;27;20050;-62
2023/06/13 10:31:51;;;;;;;3.00;2.38;;;29.10;77.60;;;;;;5135330;27;20171;-63
2023/06/13 10:34:34;;;;;;;2.90;2.17;;;29.20;77.40;;;;;;5137670;27;20074;-62
2023/06/13 10:37:21;;;;;;;3.85;2.08;;;29.40;77.40;;;;;;5133783;28;20434;-62
2023/06/13 10:40:05;;;;;;;3.05;2.40;;;29.40;77.60;;;;;;5133384;27;20059;-62
2023/06/13 10:42:37;;;;;;;5.05;2.10;;;29.60;77.00;;;;;;5132069;27;20535;-63
2023/06/13 10:45:11;;;;;;;3.55;2.28;;;29.70;77.10;;;;;;5131909;28;20043;-62
2023/06/13 10:47:38;;;;;;;4.35;2.03;;;29.80;76.00;;;;;;5132567;27;20083;-62
2023/06/13 10:50:04;;;;;;;3.22;2.28;;;29.70;76.40;;;;;;5132640;28;20055;-62
2023/06/13 10:52:30;;;;;;;3.88;2.13;;;29.70;75.80;;;;;;5133083;28;20126;-62
2023/06/13 10:55:01;;;;;;;3.90;2.75;;;29.80;76.40;;;;;;5149339;27;20134;-62
2023/06/13 10:57:56;;;;;;;3.22;2.45;;;29.90;76.00;;;;;;5132744;28;20096;-63
2023/06/13 11:00:34;;;;;;;3.28;2.35;;;30.00;75.00;;;;;;5130597;28;20047;-63
2023/06/13 11:03:09;;;;;;;3.15;2.53;;;30.10;76.40;;;;;;5132433;27;20043;-63
2023/06/13 11:05:53;;;;;;;3.60;2.50;;;30.30;75.90;;;;;;5132618;28;20050;-63
2023/06/13 11:08:25;;;;;;;3.70;3.10;;;30.40;75.30;;;;;;5132047;27;20046;-62
2023/06/13 11:10:52;;;;;;;3.38;2.80;;;30.40;74.40;;;;;;5114241;28;20052;-63
2023/06/13 11:13:32;;;;;;;2.75;2.20;;;30.40;75.00;;;;;;5114682;28;20039;-62
2023/06/13 11:16:20;;;;;;;3.00;2.25;;;30.40;74.30;;;;;;5133312;28;20043;-62
2023/06/13 11:18:51;;;;;;;6.20;2.50;;;30.50;75.80;;;;;;5132818;27;20058;-63
2023/06/13 11:21:17;;;;;;;4.55;2.60;;;30.80;76.50;;;;;;5136443;27;20054;-63
2023/06/13 11:23:54;;;;;;;2.95;2.30;;;30.80;75.80;;;;;;5136720;27;20483;-63
2023/06/13 11:26:21;;;;;;;3.40;2.50;;;30.80;74.30;;;;;;5136840;27;20074;-63
2023/06/13 11:28:54;;;;;;;2.70;2.28;;;30.80;73.60;;;;;;5136640;27;20044;-62
2023/06/13 11:31:20;;;;;;;3.15;2.15;;;30.70;72.20;;;;;;5136698;27;20130;-63
2023/06/13 11:33:50;;;;;;;3.60;2.20;;;30.80;73.90;;;;;;5147766;27;20047;-63
2023/06/13 11:36:17;;;;;;;3.67;2.53;;;30.90;74.20;;;;;;5118553;27;20556;-63
2023/06/13 11:39:03;;;;;;;2.58;2.15;;;31.00;74.00;;;;;;5149292;27;20386;-63
2023/06/13 11:41:29;;;;;;;3.67;2.33;;;31.10;72.50;;;;;;5157177;27;20043;-63
2023/06/13 11:43:56;;;;;;;4.63;2.53;;;31.10;72.50;;;;;;5156992;27;20099;-63
2023/06/13 11:46:22;;;;;;;2.75;2.30;;;31.00;71.50;;;;;;5157286;27;20078;-63
2023/06/13 11:48:54;;;;;;;2.95;1.95;;;31.10;72.70;;;;;;5138115;27;20066;-63
2023/06/13 11:51:20;;;;;;;3.22;2.20;;;31.10;72.60;;;;;;5155680;27;20043;-63
2023/06/13 11:53:57;;;;;;;3.25;2.30;;;31.30;73.40;;;;;;5156735;27;20047;-63
2023/06/13 11:56:24;;;;;;;4.38;2.47;;;31.40;72.20;;;;;;5139425;27;20114;-63
2023/06/13 11:58:52;;;;;;;3.13;2.15;;;31.40;72.10;;;;;;5136092;27;20039;-63
2023/06/13 12:01:21;;;;;;;5.38;2.45;;;31.40;71.80;;;;;;5141766;27;20086;-63
2023/06/13 12:03:47;;;;;;;3.85;2.53;;;31.20;70.60;;;;;;5149600;27;20118;-63
2023/06/13 12:06:14;;;;;;;3.50;2.20;;;31.20;71.10;;;;;;5135816;27;20479;-63
2023/06/13 12:08:44;;;;;;;3.35;2.40;;;31.30;71.90;;;;;;5135527;27;20040;-63
2023/06/13 12:11:14;;;;;;;3.38;2.55;;;31.40;72.40;;;;;;5117410;27;20483;-63
2023/06/13 12:13:40;;;;;;;3.05;2.50;;;31.60;72.00;;;;;;5135118;27;20039;-64
2023/06/13 12:16:06;;;;;;;3.38;2.50;;;31.70;71.00;;;;;;5134186;27;20043;-63
2023/06/13 12:18:33;;;;;;;3.30;2.42;;;31.60;71.10;;;;;;5134511;27;20039;-63
2023/06/13 12:20:59;;;;;;;3.53;2.42;;;31.60;71.40;;;;;;5134960;27;20039;-63
2023/06/13 12:23:30;;;;;;;3.22;2.65;;;31.80;71.10;;;;;;5135105;27;20051;-63
2023/06/13 12:25:57;;;;;;;3.33;2.30;;;31.80;71.30;;;;;;5134709;27;20087;-63
2023/06/13 12:28:23;;;;;;;4.38;2.60;;;31.90;70.30;;;;;;5135253;27;20476;-63
2023/06/13 12:30:49;;;;;;;3.38;2.45;;;31.90;70.40;;;;;;5134332;27;20050;-63
2023/06/13 12:33:19;;;;;;;4.78;2.20;;;32.10;70.90;;;;;;5148370;27;20043;-63
2023/06/13 12:35:57;;;;;;;3.92;2.55;;;32.20;70.70;;;;;;5135257;27;20047;-63
2023/06/13 12:38:30;;;;;;;2.95;2.30;;;32.40;70.00;;;;;;5145919;27;20051;-63
2023/06/13 12:40:56;;;;;;;3.35;2.38;;;32.50;70.40;;;;;;5155943;27;20068;-63
2023/06/13 12:43:32;;;;;;;3.90;2.13;;;32.50;70.30;;;;;;5137494;27;20046;-63
2023/06/13 12:45:59;;;;;;;3.40;2.25;;;32.50;69.90;;;;;;5137759;27;20058;-63
2023/06/13 12:48:25;;;;;;;2.80;2.13;;;32.50;70.30;;;;;;5154959;27;20046;-63
2023/06/13 12:50:54;;;;;;;2.75;2.40;;;32.60;70.50;;;;;;5155230;27;20082;-63
2023/06/13 12:53:22;;;;;;;3.00;2.25;;;32.70;70.30;;;;;;5148909;27;20047;-64